Time;durP1;ratioP1;P1;durP2;ratioP2;P2;SDS_P1;SDS_P2;PMS_P1;PMS_P2;Temp;Humidity;BMP_temperature;BMP_pressure;BME280_temperature;BME280_humidity;BME280_pressure;Samples;Min_cycle;Max_cycle;Signal;HPM_P1;HPM_P2
2022/06/15 00:01:50;;;;;;;6.93;4.00;;;;;;;14.19;67.86;101736.94;5192544;28;20026;-72
2022/06/15 00:04:22;;;;;;;9.60;4.13;;;;;;;14.18;67.95;101736.09;5192660;28;20487;-73
2022/06/15 00:06:53;;;;;;;9.37;4.60;;;;;;;14.16;67.93;101729.97;5192917;28;20145;-74
2022/06/15 00:09:25;;;;;;;6.60;3.80;;;;;;;14.13;68.34;101724.75;5192624;28;20058;-73
2022/06/15 00:11:57;;;;;;;7.30;4.13;;;;;;;14.09;68.30;101730.06;5192404;28;20033;-73
2022/06/15 00:14:29;;;;;;;8.27;3.90;;;;;;;14.06;69.37;101736.22;5192929;28;20062;-72
2022/06/15 00:17:00;;;;;;;10.20;4.70;;;;;;;14.15;68.77;101717.78;5192685;28;20309;-72
2022/06/15 00:19:32;;;;;;;6.60;3.77;;;;;;;14.03;68.92;101729.25;5192656;28;20053;-77
2022/06/15 00:22:03;;;;;;;7.00;3.83;;;;;;;13.89;69.20;101727.69;5192683;28;20048;-73
2022/06/15 00:24:35;;;;;;;8.47;4.17;;;;;;;13.89;68.95;101722.44;5192906;28;20046;-73
2022/06/15 00:27:06;;;;;;;9.00;4.00;;;;;;;13.78;69.87;101723.44;5192232;28;20038;-72
2022/06/15 00:29:37;;;;;;;9.13;3.53;;;;;;;13.78;69.47;101722.56;5192175;28;20034;-73
2022/06/15 00:32:09;;;;;;;11.13;4.30;;;;;;;13.75;70.11;101718.25;5192212;28;20172;-71
2022/06/15 00:34:44;;;;;;;5.93;3.60;;;;;;;13.69;70.30;101720.94;5192740;28;20031;-71
2022/06/15 00:37:15;;;;;;;7.68;3.92;;;;;;;13.63;70.00;101721.84;5192266;28;20102;-71
2022/06/15 00:39:46;;;;;;;9.60;4.00;;;;;;;13.63;70.23;101715.75;5192292;28;20030;-73
2022/06/15 00:42:19;;;;;;;8.77;3.67;;;;;;;13.63;70.51;101711.38;5192038;28;20061;-72
2022/06/15 00:44:51;;;;;;;7.53;3.40;;;;;;;13.39;70.83;101715.09;5191908;28;20042;-71
2022/06/15 00:47:27;;;;;;;9.03;4.00;;;;;;;13.50;71.64;101710.63;5192054;28;20030;-73
2022/06/15 00:50:18;;;;;;;8.63;3.95;;;;;;;13.47;70.78;101712.41;5192260;28;20023;-71
2022/06/15 00:53:01;;;;;;;7.28;4.32;;;;;;;13.47;71.72;101713.28;5191835;28;20038;-73
2022/06/15 00:55:34;;;;;;;8.57;3.50;;;;;;;13.32;72.31;101710.78;5192133;28;20032;-73
2022/06/15 00:58:09;;;;;;;7.88;4.18;;;;;;;13.37;72.22;101706.41;5191584;28;20383;-79
2022/06/15 01:00:41;;;;;;;7.40;3.70;;;;;;;13.11;72.67;101715.31;5242586;28;20030;-73
2022/06/15 01:03:13;;;;;;;9.33;3.80;;;;;;;13.24;71.96;101710.84;5191857;28;20364;-71
2022/06/15 01:06:08;;;;;;;8.57;4.27;;;;;;;13.20;72.48;101708.25;5191316;28;20026;-71
2022/06/15 01:09:06;;;;;;;7.60;4.15;;;;;;;13.14;72.81;101706.59;5191246;28;20064;-72
2022/06/15 01:11:59;;;;;;;8.25;4.28;;;;;;;13.10;72.76;101705.72;5191565;28;20092;-72
2022/06/15 01:14:47;;;;;;;9.85;4.28;;;;;;;13.13;73.13;101699.59;5191367;28;20035;-72
2022/06/15 01:18:06;;;;;;;5.95;3.70;;;;;;;13.03;72.70;101698.81;5191775;28;20031;-72
2022/06/15 01:20:52;;;;;;;7.72;5.32;;;;;;;12.86;74.31;101706.78;5176113;28;20046;-72
2022/06/15 01:24:03;;;;;;;10.05;4.13;;;;;;;12.81;74.03;101702.47;5192184;28;20586;-74
2022/06/15 01:27:13;;;;;;;8.35;3.95;;;;;;;12.90;74.16;101697.19;5191798;28;20038;-72
2022/06/15 01:30:06;;;;;;;12.27;4.28;;;;;;;12.81;74.15;101710.34;5191815;28;20039;-72
2022/06/15 01:33:25;;;;;;;9.25;4.93;;;;;;;12.85;73.53;101706.84;5191894;28;20045;-73
2022/06/15 01:36:07;;;;;;;8.95;4.63;;;;;;;12.73;74.91;101702.53;5111971;29;20047;-72
2022/06/15 01:39:00;;;;;;;11.00;4.60;;;;;;;12.59;75.50;101700.03;5111877;29;20162;-72
2022/06/15 01:41:46;;;;;;;9.55;4.35;;;;;;;12.72;75.31;101696.44;5111352;29;20695;-71
2022/06/15 01:44:32;;;;;;;9.48;4.95;;;;;;;12.64;75.24;101698.25;5111171;29;20048;-73
2022/06/15 01:47:10;;;;;;;8.27;4.40;;;;;;;12.47;75.86;101697.47;5111231;29;20036;-71
2022/06/15 01:50:02;;;;;;;7.50;4.47;;;;;;;12.54;76.18;101693.94;5111445;29;20451;-72
2022/06/15 01:52:50;;;;;;;7.97;4.53;;;;;;;12.45;76.52;101687.03;5111557;28;20064;-74
2022/06/15 01:55:29;;;;;;;9.20;3.75;;;;;;;12.28;76.59;101689.72;5111765;29;20039;-72
2022/06/15 01:58:06;;;;;;;9.20;5.53;;;;;;;12.25;77.03;101692.34;5211819;28;20432;-72
2022/06/15 02:00:38;;;;;;;7.97;4.53;;;;;;;12.22;76.87;101687.16;5211168;28;20042;-75
2022/06/15 02:03:17;;;;;;;9.73;4.80;;;;;;;12.29;77.52;101686.25;5211499;28;20080;-72
2022/06/15 02:05:51;;;;;;;8.05;4.88;;;;;;;12.21;77.84;101675.81;5206678;28;20043;-74
2022/06/15 02:08:42;;;;;;;8.85;4.40;;;;;;;12.30;77.35;101679.25;5190144;28;20050;-72
2022/06/15 02:11:30;;;;;;;6.53;4.50;;;;;;;12.19;77.48;101680.19;5190644;28;20125;-72
2022/06/15 02:14:12;;;;;;;12.93;5.47;;;;;;;12.06;77.86;101680.25;5190645;28;20133;-73
2022/06/15 02:16:49;;;;;;;7.55;4.55;;;;;;;11.91;78.60;101673.31;5190349;28;20833;-73
2022/06/15 02:19:32;;;;;;;9.95;5.20;;;;;;;11.92;78.01;101673.34;5192555;28;20369;-71
2022/06/15 02:22:07;;;;;;;9.52;4.63;;;;;;;11.97;78.31;101673.34;5192248;28;20038;-72
2022/06/15 02:24:40;;;;;;;5.93;4.45;;;;;;;11.81;78.61;101670.75;5190640;28;20447;-71
2022/06/15 02:27:14;;;;;;;15.18;5.68;;;;;;;11.80;78.66;101668.13;5190828;28;20058;-72
2022/06/15 02:29:48;;;;;;;6.93;4.55;;;;;;;11.86;79.09;101673.34;5190704;28;20034;-71
2022/06/15 02:32:20;;;;;;;8.30;4.53;;;;;;;11.78;78.91;101668.13;5190645;28;20046;-72
2022/06/15 02:34:51;;;;;;;10.90;4.97;;;;;;;11.70;79.48;101671.66;5190313;28;20049;-72
2022/06/15 02:37:23;;;;;;;10.20;5.00;;;;;;;11.61;80.04;101668.22;5190567;28;20046;-73
2022/06/15 02:39:54;;;;;;;7.00;4.93;;;;;;;11.75;80.23;101669.91;5190534;28;20538;-74
2022/06/15 02:42:31;;;;;;;11.37;6.37;;;;;;;11.52;80.41;101664.75;5190547;28;20030;-72
2022/06/15 02:45:08;;;;;;;10.05;4.95;;;;;;;11.58;80.17;101656.91;5190222;28;20029;-73
2022/06/15 02:47:41;;;;;;;10.73;5.13;;;;;;;11.52;80.62;101656.94;5190565;28;20042;-71
2022/06/15 02:50:17;;;;;;;14.70;5.07;;;;;;;11.47;81.09;101651.72;5190040;28;20091;-71
2022/06/15 02:52:55;;;;;;;7.95;5.60;;;;;;;11.42;80.98;101651.72;5190252;28;20030;-73
2022/06/15 02:55:28;;;;;;;8.82;5.00;;;;;;;11.41;81.27;101654.34;5190311;28;20425;-71
2022/06/15 02:58:06;;;;;;;10.88;5.25;;;;;;;11.44;81.15;101651.72;5189961;28;20030;-72
2022/06/15 03:00:38;;;;;;;11.18;5.65;;;;;;;11.28;81.54;101648.25;5189865;28;20546;-76
2022/06/15 03:03:09;;;;;;;10.35;5.53;;;;;;;11.38;81.83;101643.91;5189809;28;20149;-72
2022/06/15 03:05:47;;;;;;;10.37;5.43;;;;;;;11.28;81.75;101648.25;5189884;28;20030;-71
2022/06/15 03:08:19;;;;;;;9.48;5.50;;;;;;;11.29;82.22;101650.00;5253351;28;20073;-72
2022/06/15 03:10:53;;;;;;;11.35;5.45;;;;;;;11.36;82.08;101649.13;5189991;28;20075;-72
2022/06/15 03:13:24;;;;;;;9.18;5.78;;;;;;;11.25;81.63;101646.56;5189719;28;20490;-72
2022/06/15 03:16:01;;;;;;;11.18;5.78;;;;;;;11.30;82.37;101647.41;5189840;28;20034;-71
2022/06/15 03:18:32;;;;;;;8.75;4.57;;;;;;;11.28;82.25;101653.47;5189931;28;20023;-75
2022/06/15 03:21:04;;;;;;;7.43;4.67;;;;;;;11.26;82.14;101648.28;5189989;28;20084;-73
2022/06/15 03:23:35;;;;;;;9.37;5.33;;;;;;;11.25;82.50;101648.28;5189618;28;20276;-72
2022/06/15 03:26:07;;;;;;;11.37;5.40;;;;;;;11.14;82.42;101650.91;5189202;28;20018;-73
2022/06/15 03:28:38;;;;;;;10.20;5.30;;;;;;;11.19;81.95;101648.28;5189193;28;20945;-72
2022/06/15 03:31:10;;;;;;;11.60;6.30;;;;;;;11.18;82.52;101655.25;5189550;28;20483;-73
2022/06/15 03:33:41;;;;;;;10.73;5.27;;;;;;;11.18;82.60;101662.22;5189261;28;20037;-72
2022/06/15 03:36:13;;;;;;;12.80;5.43;;;;;;;11.13;83.11;101657.00;5189345;28;20026;-73
2022/06/15 03:38:44;;;;;;;11.17;5.30;;;;;;;11.09;82.84;101656.13;5256018;28;20035;-73
2022/06/15 03:41:18;;;;;;;10.57;4.87;;;;;;;11.09;83.29;101657.84;5189369;28;20041;-70
2022/06/15 03:43:49;;;;;;;9.32;5.18;;;;;;;11.00;83.27;101663.09;5189351;28;20857;-72
2022/06/15 03:46:23;;;;;;;11.47;5.20;;;;;;;11.35;83.03;101662.16;5188797;28;20030;-72
2022/06/15 03:48:54;;;;;;;11.15;5.72;;;;;;;11.21;82.67;101662.22;5188898;28;20026;-72
2022/06/15 03:51:25;;;;;;;12.70;5.03;;;;;;;11.15;83.01;101668.28;5189025;28;20035;-73
2022/06/15 03:53:57;;;;;;;10.03;4.90;;;;;;;11.36;83.25;101663.91;5189311;28;20053;-72
2022/06/15 03:56:48;;;;;;;6.85;5.05;;;;;;;11.27;82.81;101665.69;5189316;28;20497;-74
2022/06/15 03:59:20;;;;;;;7.57;5.18;;;;;;;11.30;83.01;101664.78;5188922;28;20512;-75
2022/06/15 04:01:51;;;;;;;9.63;5.27;;;;;;;11.42;82.74;101664.78;5188912;28;20051;-72
2022/06/15 04:04:23;;;;;;;10.70;4.93;;;;;;;11.34;82.80;101668.28;5189111;28;20122;-74
2022/06/15 04:06:54;;;;;;;10.63;5.93;;;;;;;11.30;82.73;101665.69;5189088;28;20125;-73
2022/06/15 04:09:27;;;;;;;8.43;5.43;;;;;;;11.31;82.58;101666.53;5188680;28;20143;-72
2022/06/15 04:11:58;;;;;;;10.52;5.15;;;;;;;11.29;82.64;101665.69;5188862;28;20038;-72
2022/06/15 04:14:30;;;;;;;10.73;5.47;;;;;;;11.34;82.50;101665.66;5188377;28;20022;-72
2022/06/15 04:17:03;;;;;;;10.33;5.40;;;;;;;11.37;83.37;101676.09;5188372;28;20027;-72
2022/06/15 04:19:35;;;;;;;11.07;5.38;;;;;;;11.47;82.84;101675.22;5188673;28;20022;-74
2022/06/15 04:22:06;;;;;;;11.63;5.60;;;;;;;11.45;82.86;101669.13;5188719;28;20549;-75
2022/06/15 04:24:39;;;;;;;12.33;5.67;;;;;;;11.38;82.66;101668.28;5188824;28;20026;-75
2022/06/15 04:27:14;;;;;;;13.35;5.28;;;;;;;11.36;82.49;101662.16;5188369;28;20027;-74
2022/06/15 04:29:45;;;;;;;13.40;6.03;;;;;;;11.40;82.60;101670.84;5188557;28;20264;-75
2022/06/15 04:32:17;;;;;;;10.87;5.40;;;;;;;11.48;82.30;101671.75;5255358;28;20042;-74
2022/06/15 04:34:48;;;;;;;15.70;5.67;;;;;;;11.54;82.81;101669.09;5188352;28;20034;-74
2022/06/15 04:37:20;;;;;;;8.80;6.27;;;;;;;11.45;82.84;101669.13;5188657;28;20034;-73
2022/06/15 04:39:51;;;;;;;9.57;5.90;;;;;;;11.59;82.94;101662.13;5189692;28;20060;-73
2022/06/15 04:42:22;;;;;;;10.30;6.30;;;;;;;11.52;82.71;101663.00;5258613;28;20046;-73
2022/06/15 04:44:54;;;;;;;13.60;5.57;;;;;;;11.66;82.69;101656.00;5191810;28;20125;-75
2022/06/15 04:47:26;;;;;;;16.25;5.75;;;;;;;11.63;82.51;101670.81;5192031;28;20091;-76
2022/06/15 04:49:57;;;;;;;10.00;5.87;;;;;;;11.75;82.23;101670.78;5191982;28;20038;-75
2022/06/15 04:52:28;;;;;;;11.90;5.87;;;;;;;11.84;82.80;101670.72;5191945;28;20139;-72
2022/06/15 04:55:00;;;;;;;13.97;6.00;;;;;;;11.87;81.74;101675.09;5191710;28;20034;-72
2022/06/15 04:57:32;;;;;;;11.40;6.43;;;;;;;11.94;81.33;101681.19;5191697;28;20409;-74
2022/06/15 05:00:11;;;;;;;11.48;6.15;;;;;;;12.01;81.68;101673.31;5191517;28;20137;-75
2022/06/15 05:02:42;;;;;;;15.68;7.28;;;;;;;12.28;82.05;101676.66;5191226;28;20050;-72
2022/06/15 05:05:14;;;;;;;13.73;6.80;;;;;;;12.24;81.08;101674.09;5191454;28;20132;-72
2022/06/15 05:07:46;;;;;;;14.70;6.53;;;;;;;12.27;81.68;101672.31;5191683;28;20079;-75
2022/06/15 05:10:21;;;;;;;11.45;6.18;;;;;;;12.40;81.36;101679.22;5191513;28;20058;-77
2022/06/15 05:12:53;;;;;;;12.40;5.90;;;;;;;12.38;80.91;101674.84;5191466;28;20430;-75
2022/06/15 05:15:25;;;;;;;12.82;6.63;;;;;;;12.44;80.76;101676.56;5191497;28;20026;-75
2022/06/15 05:18:01;;;;;;;11.33;6.20;;;;;;;12.50;80.90;101677.41;5259316;28;20495;-79
2022/06/15 05:20:39;;;;;;;14.98;6.75;;;;;;;12.61;80.86;101679.09;5192036;28;20481;-74
2022/06/15 05:23:15;;;;;;;10.77;6.30;;;;;;;12.72;79.99;101678.13;5191719;28;20046;-72
2022/06/15 05:25:46;;;;;;;12.95;6.82;;;;;;;12.74;79.65;101678.13;5190956;28;20142;-73
2022/06/15 05:28:18;;;;;;;12.43;6.83;;;;;;;12.88;79.24;101678.00;5191483;28;20496;-73
2022/06/15 05:30:49;;;;;;;13.67;6.40;;;;;;;12.97;79.23;101679.69;5191682;28;20083;-75
2022/06/15 05:33:20;;;;;;;10.37;6.03;;;;;;;13.09;79.55;101674.34;5191790;28;20064;-74
2022/06/15 05:35:52;;;;;;;10.87;6.80;;;;;;;13.17;78.30;101666.41;5191607;28;20124;-75
2022/06/15 05:38:23;;;;;;;11.00;6.77;;;;;;;13.29;78.30;101674.16;5191789;28;20049;-76
2022/06/15 05:40:54;;;;;;;11.43;6.40;;;;;;;13.43;78.94;101674.91;5191276;28;20045;-76
2022/06/15 05:43:26;;;;;;;10.13;6.60;;;;;;;13.49;77.88;101673.97;5191494;28;20037;-74
2022/06/15 05:45:57;;;;;;;11.23;6.93;;;;;;;13.60;78.92;101673.84;5191015;28;20440;-77
2022/06/15 05:48:28;;;;;;;10.37;6.43;;;;;;;13.65;77.35;101683.41;5190925;28;20360;-74
2022/06/15 05:51:00;;;;;;;12.10;6.50;;;;;;;13.77;78.42;101685.03;5190809;28;20042;-76
2022/06/15 05:53:31;;;;;;;11.47;6.80;;;;;;;13.88;76.51;101679.66;5191250;28;20022;-75
2022/06/15 05:56:02;;;;;;;14.87;6.27;;;;;;;13.90;76.44;101684.88;5191331;28;20061;-75
2022/06/15 05:58:34;;;;;;;10.63;6.20;;;;;;;14.02;75.00;101684.72;5191493;28;20476;-75
2022/06/15 06:01:10;;;;;;;12.03;6.73;;;;;;;14.12;74.89;101678.47;5192506;28;20471;-75
2022/06/15 06:03:42;;;;;;;13.70;5.82;;;;;;;14.26;75.94;101686.13;5193361;28;20030;-74
2022/06/15 06:06:14;;;;;;;13.10;7.00;;;;;;;14.37;74.19;101681.59;5192414;28;20030;-74
2022/06/15 06:08:45;;;;;;;15.23;7.07;;;;;;;14.41;74.82;101688.56;5192445;28;20504;-73
2022/06/15 06:11:17;;;;;;;14.70;7.33;;;;;;;14.62;74.41;101689.19;5192891;28;20027;-76
2022/06/15 06:13:49;;;;;;;13.45;7.25;;;;;;;14.71;73.40;101677.66;5193466;28;20088;-74
2022/06/15 06:16:21;;;;;;;9.90;5.60;;;;;;;14.79;72.44;101681.03;5193668;28;20018;-75
2022/06/15 06:18:52;;;;;;;11.10;6.40;;;;;;;14.91;73.29;101679.97;5193107;28;20059;-74
2022/06/15 06:21:23;;;;;;;7.37;5.07;;;;;;;15.00;72.14;101671.06;5193450;28;20053;-75
2022/06/15 06:23:55;;;;;;;13.10;6.47;;;;;;;15.06;71.78;101674.44;5193355;28;20115;-75
2022/06/15 06:26:28;;;;;;;10.73;6.07;;;;;;;15.20;71.14;101682.09;5192548;28;20390;-75
2022/06/15 06:29:01;;;;;;;11.75;5.85;;;;;;;15.27;71.16;101675.81;5192826;28;20031;-78
2022/06/15 06:31:32;;;;;;;9.95;5.90;;;;;;;15.46;71.67;101678.13;5191939;28;20031;-72
2022/06/15 06:34:04;;;;;;;10.70;5.80;;;;;;;15.48;70.92;101679.81;5191171;28;20026;-73
2022/06/15 06:36:42;;;;;;;8.67;5.30;;;;;;;15.60;70.94;101677.84;5190116;28;20494;-73
2022/06/15 06:39:25;;;;;;;8.63;5.85;;;;;;;15.75;70.27;101681.97;5191065;28;20391;-73
2022/06/15 06:41:58;;;;;;;12.15;6.63;;;;;;;15.83;70.75;101685.31;5190674;28;20042;-75
2022/06/15 06:44:29;;;;;;;10.32;6.18;;;;;;;15.88;69.35;101686.09;5190494;28;20030;-75
2022/06/15 06:47:01;;;;;;;13.17;7.17;;;;;;;15.95;68.72;101682.41;5190539;28;20387;-74
2022/06/15 06:49:33;;;;;;;10.30;6.43;;;;;;;16.09;69.33;101694.44;5189795;28;20033;-75
2022/06/15 06:52:05;;;;;;;11.55;6.20;;;;;;;16.17;69.12;101690.72;5190245;28;20690;-75
2022/06/15 06:54:36;;;;;;;12.43;6.35;;;;;;;16.25;67.51;101684.44;5190219;28;20022;-74
2022/06/15 06:57:08;;;;;;;10.70;6.53;;;;;;;16.44;66.99;101693.66;5190241;28;20034;-75
2022/06/15 06:59:40;;;;;;;9.32;5.18;;;;;;;16.47;66.69;101695.34;5189876;28;20060;-75
2022/06/15 07:02:12;;;;;;;9.60;5.40;;;;;;;16.63;65.38;101696.75;5189666;28;20456;-74
2022/06/15 07:04:43;;;;;;;13.70;5.77;;;;;;;16.80;66.38;101703.38;5190182;28;20060;-77
2022/06/15 07:07:15;;;;;;;14.30;6.10;;;;;;;16.94;66.67;101703.94;5189947;28;20117;-76
2022/06/15 07:09:46;;;;;;;13.13;6.00;;;;;;;17.01;66.31;101700.22;5190295;28;20090;-75
2022/06/15 07:12:18;;;;;;;10.27;5.70;;;;;;;17.19;64.89;101698.03;5256618;28;20034;-75
2022/06/15 07:14:51;;;;;;;9.57;5.30;;;;;;;17.24;66.22;101706.66;5189639;28;20038;-75
2022/06/15 07:17:22;;;;;;;15.52;5.50;;;;;;;17.38;65.50;101699.25;5189851;28;20488;-75
2022/06/15 07:19:53;;;;;;;11.10;4.80;;;;;;;17.50;63.39;101698.94;5189954;28;20091;-76
2022/06/15 07:22:25;;;;;;;9.20;5.73;;;;;;;17.62;62.51;101699.50;5189635;28;20049;-76
2022/06/15 07:24:56;;;;;;;10.77;5.33;;;;;;;17.72;63.82;101706.25;5189764;28;20038;-75
2022/06/15 07:27:28;;;;;;;8.90;4.80;;;;;;;17.82;62.11;101704.22;5256122;28;20049;-76
2022/06/15 07:29:59;;;;;;;7.20;5.03;;;;;;;17.86;63.65;101693.53;5189729;28;20023;-76
2022/06/15 07:32:31;;;;;;;9.43;4.77;;;;;;;17.94;61.90;101708.34;5190019;28;20042;-74
2022/06/15 07:35:03;;;;;;;8.70;5.37;;;;;;;18.14;60.48;101705.94;5189833;28;20034;-76
2022/06/15 07:37:34;;;;;;;9.02;4.15;;;;;;;18.27;61.09;101708.22;5189381;28;20033;-75
2022/06/15 07:40:06;;;;;;;10.07;5.30;;;;;;;18.40;62.22;101704.28;5189911;28;20026;-72
2022/06/15 07:42:39;;;;;;;10.90;4.82;;;;;;;18.49;58.91;101708.44;5189651;28;20332;-74
2022/06/15 07:45:12;;;;;;;8.73;4.90;;;;;;;18.48;60.38;101712.88;5189344;28;20030;-82
2022/06/15 07:50:34;;;;;;;9.13;5.20;;;;;;;18.70;58.11;101709.53;5189435;28;20423;-76
2022/06/15 07:53:08;;;;;;;11.05;4.53;;;;;;;18.85;56.57;101706.44;5190004;28;20086;-75
2022/06/15 07:55:44;;;;;;;7.72;3.90;;;;;;;18.89;57.24;101710.69;5190813;28;20357;-74
2022/06/15 07:58:16;;;;;;;10.38;3.78;;;;;;;19.02;57.65;101708.50;5190002;28;20422;-75
2022/06/15 08:00:49;;;;;;;10.15;4.10;;;;;;;19.16;56.52;101709.81;5189329;28;20041;-73
2022/06/15 08:03:21;;;;;;;9.68;4.43;;;;;;;19.03;54.41;101707.59;5189689;28;20030;-76
2022/06/15 08:05:52;;;;;;;8.32;3.80;;;;;;;19.25;55.96;101706.88;5256303;28;20030;-75
2022/06/15 08:08:25;;;;;;;10.87;4.73;;;;;;;19.28;55.62;101712.91;5190070;28;20450;-75
2022/06/15 08:10:56;;;;;;;;;;;;;;;19.52;55.64;101718.25;5189988;28;20765;-76
2022/06/15 08:13:28;;;;;;;7.40;4.25;;;;;;;19.46;55.30;101714.06;5190207;28;19921;-75
2022/06/15 08:16:00;;;;;;;13.80;5.07;;;;;;;19.58;53.87;101702.19;5191614;28;20191;-75
2022/06/15 08:18:38;;;;;;;12.57;4.23;;;;;;;19.79;54.92;101715.59;5192846;28;20104;-75
2022/06/15 08:21:15;;;;;;;8.38;3.97;;;;;;;19.83;53.10;101704.81;5192362;28;20304;-74
2022/06/15 08:23:50;;;;;;;10.55;3.60;;;;;;;19.99;55.18;101722.78;5192264;28;20030;-74
2022/06/15 08:26:26;;;;;;;6.93;4.40;;;;;;;19.98;52.69;101721.03;5192558;28;20190;-74
2022/06/15 08:29:04;;;;;;;11.23;4.45;;;;;;;20.09;54.05;101718.00;5193077;28;20417;-76
2022/06/15 08:31:36;;;;;;;9.70;3.50;;;;;;;20.29;54.28;101704.00;5192448;28;20402;-75
2022/06/15 08:34:07;;;;;;;11.20;4.85;;;;;;;20.35;52.63;101715.22;5192537;28;20034;-73
2022/06/15 08:36:39;;;;;;;9.60;4.33;;;;;;;20.40;50.52;101707.09;5191992;28;20041;-74
2022/06/15 08:39:10;;;;;;;8.70;3.80;;;;;;;20.33;51.33;101717.03;5191938;28;20036;-74
2022/06/15 08:41:54;;;;;;;9.13;3.50;;;;;;;20.45;49.90;101713.06;5191748;28;20136;-74
2022/06/15 08:45:09;;;;;;;9.38;3.55;;;;;;;20.66;52.61;101711.38;5192386;28;20488;-75
2022/06/15 08:48:22;;;;;;;9.88;3.38;;;;;;;21.04;51.62;101708.94;5192346;28;20069;-74
2022/06/15 08:51:09;;;;;;;11.02;3.70;;;;;;;21.00;49.21;101703.84;5192425;28;20038;-74
2022/06/15 08:53:50;;;;;;;10.25;3.95;;;;;;;21.21;49.56;101707.38;5192296;28;20091;-73
2022/06/15 08:56:29;;;;;;;9.70;4.40;;;;;;;21.07;47.11;101703.50;5192342;28;20101;-74
2022/06/15 08:59:03;;;;;;;8.40;4.40;;;;;;;21.23;48.64;101708.16;5192241;28;20106;-75
2022/06/15 09:01:41;;;;;;;10.32;3.72;;;;;;;21.24;48.52;101709.88;5192467;28;20046;-74
2022/06/15 09:04:34;;;;;;;8.18;3.72;;;;;;;21.41;49.28;101695.88;5192453;28;20081;-73
2022/06/15 09:07:13;;;;;;;8.88;4.03;;;;;;;21.34;47.48;101692.63;5192614;28;20049;-73
2022/06/15 09:10:10;;;;;;;9.57;4.35;;;;;;;21.38;50.41;101699.53;5192516;28;20046;-74
2022/06/15 09:13:16;;;;;;;15.07;4.80;;;;;;;21.41;47.46;101702.06;5194911;28;20042;-76
2022/06/15 09:15:53;;;;;;;9.82;4.78;;;;;;;21.43;48.34;101700.19;5192555;28;20031;-74
2022/06/15 09:18:33;;;;;;;8.85;4.72;;;;;;;21.56;46.31;101704.97;5192716;28;20089;-76
2022/06/15 09:21:14;;;;;;;10.05;4.07;;;;;;;21.68;45.93;101699.13;5191887;28;20046;-77
2022/06/15 09:24:03;;;;;;;13.02;4.70;;;;;;;21.74;47.92;101696.19;5191559;28;20555;-73
2022/06/15 09:26:50;;;;;;;9.85;5.25;;;;;;;21.78;47.52;101699.56;5191293;28;20038;-75
2022/06/15 09:29:36;;;;;;;9.75;4.32;;;;;;;21.99;47.01;101698.59;5258575;28;20083;-75
2022/06/15 09:32:17;;;;;;;10.80;4.45;;;;;;;21.79;46.47;101702.16;5191236;28;20073;-72
2022/06/15 09:34:57;;;;;;;8.90;4.05;;;;;;;21.87;48.75;101700.97;5191327;28;20072;-77
2022/06/15 09:37:36;;;;;;;11.32;4.45;;;;;;;22.13;45.83;101702.41;5191149;28;20037;-72
2022/06/15 09:40:08;;;;;;;12.13;4.45;;;;;;;22.15;45.35;101693.44;5191152;28;20046;-75
2022/06/15 09:43:11;;;;;;;9.90;4.13;;;;;;;22.48;45.89;101694.59;5191493;28;20026;-74
2022/06/15 09:46:04;;;;;;;10.30;4.68;;;;;;;22.49;44.68;101698.94;5191727;28;20173;-73
2022/06/15 09:48:56;;;;;;;9.40;4.32;;;;;;;22.65;43.59;101688.44;5191724;28;20490;-75
2022/06/15 09:51:40;;;;;;;14.63;5.60;;;;;;;22.53;42.77;101696.06;5192121;28;20190;-76
2022/06/15 09:54:20;;;;;;;11.55;4.47;;;;;;;22.74;45.72;101688.00;5175639;28;20042;-74
2022/06/15 09:56:52;;;;;;;13.80;4.13;;;;;;;23.03;48.46;101686.50;5191784;28;20053;-77
2022/06/15 09:59:25;;;;;;;11.03;3.97;;;;;;;23.00;43.53;101688.47;5191905;28;20364;-74
2022/06/15 10:01:56;;;;;;;9.38;3.95;;;;;;;23.01;44.71;101680.44;5191409;28;20045;-76
2022/06/15 10:04:31;;;;;;;10.40;4.47;;;;;;;23.13;46.23;101681.63;5191641;28;20030;-73
2022/06/15 10:07:32;;;;;;;10.75;3.63;;;;;;;23.39;42.01;101688.22;5191078;28;20116;-73
2022/06/15 10:10:24;;;;;;;12.23;4.00;;;;;;;23.65;42.37;101691.31;5111377;29;20092;-74
2022/06/15 10:13:02;;;;;;;13.63;4.30;;;;;;;23.76;42.27;101698.72;5111665;29;20059;-76
2022/06/15 10:15:39;;;;;;;8.00;4.22;;;;;;;24.08;42.96;101697.00;5111893;29;20645;-74
2022/06/15 10:18:44;;;;;;;11.07;4.00;;;;;;;24.28;43.82;101698.56;5111857;29;20494;-81
2022/06/15 10:21:15;;;;;;;9.48;3.97;;;;;;;24.45;40.94;101694.09;5111805;29;20094;-75
2022/06/15 10:23:59;;;;;;;12.40;4.07;;;;;;;24.71;40.95;101697.94;5210777;28;20159;-74
2022/06/15 10:26:46;;;;;;;10.95;4.50;;;;;;;24.68;39.57;101695.44;5211700;28;20037;-73
2022/06/15 10:29:23;;;;;;;11.40;4.20;;;;;;;24.35;39.63;101688.41;5211601;28;20034;-76
2022/06/15 10:32:09;;;;;;;8.88;3.67;;;;;;;24.69;40.59;101690.03;5211754;28;20045;-76
2022/06/15 10:35:14;;;;;;;11.30;4.63;;;;;;;24.68;38.00;101688.31;5211739;28;20045;-78
2022/06/15 10:37:51;;;;;;;7.47;3.85;;;;;;;24.71;36.92;101690.81;5151001;28;20493;-74
2022/06/15 10:40:28;;;;;;;11.05;4.45;;;;;;;24.81;36.69;101684.94;5151410;29;20050;-83
2022/06/15 10:43:06;;;;;;;12.88;4.15;;;;;;;25.10;39.78;101692.06;5151146;29;20074;-75
2022/06/15 10:45:42;;;;;;;10.95;4.63;;;;;;;25.07;36.47;101684.25;5150978;29;20389;-73
2022/06/15 10:48:20;;;;;;;7.55;3.92;;;;;;;25.27;36.31;101687.53;5233326;28;20057;-74
2022/06/15 10:51:28;;;;;;;9.05;4.25;;;;;;;25.47;35.68;101681.88;5238508;28;20390;-80
2022/06/15 10:54:32;;;;;;;6.68;3.90;;;;;;;26.10;37.71;101682.44;5234734;28;20297;-76
2022/06/15 11:03:23;;;;;;;13.23;3.97;;;;;;;27.16;32.33;101668.31;5232596;28;20532;-79
2022/06/15 11:05:57;;;;;;;10.30;4.05;;;;;;;27.34;32.00;101668.88;5231519;28;20116;-77
2022/06/15 11:08:33;;;;;;;8.88;3.63;;;;;;;27.52;31.24;101662.25;5232582;28;20045;-79
2022/06/15 11:11:20;;;;;;;10.38;4.53;;;;;;;27.93;31.40;101660.22;5233225;28;20045;-77
2022/06/15 11:14:03;;;;;;;6.65;3.38;;;;;;;28.45;30.67;101656.44;5220862;28;20035;-83
2022/06/15 11:19:29;;;;;;;9.82;3.97;;;;;;;29.82;30.40;101659.28;5151468;29;20047;-74
2022/06/15 11:22:08;;;;;;;10.07;4.30;;;;;;;30.19;29.72;101658.97;5150670;29;20503;-75
2022/06/15 11:24:59;;;;;;;8.52;3.80;;;;;;;31.11;29.65;101657.63;5151234;28;20411;-78
2022/06/15 11:27:37;;;;;;;10.00;4.22;;;;;;;30.85;26.76;101659.84;5150662;28;20393;-73
2022/06/15 11:30:27;;;;;;;10.20;4.32;;;;;;;32.03;29.78;101661.25;5150426;29;20046;-79
2022/06/15 11:33:22;;;;;;;11.32;4.50;;;;;;;32.46;29.35;101666.31;5151497;28;20040;-82
2022/06/15 11:36:25;;;;;;;9.77;4.38;;;;;;;32.07;26.81;101663.53;5151940;29;20031;-74
2022/06/15 11:39:02;;;;;;;11.13;4.35;;;;;;;31.62;26.27;101667.53;5153205;28;20031;-79
2022/06/15 11:41:44;;;;;;;9.70;4.25;;;;;;;30.48;26.70;101666.50;5152300;29;20059;-74
2022/06/15 11:44:19;;;;;;;;;;;;;;;32.60;25.77;101665.00;5152215;28;20500;-81
2022/06/15 11:47:13;;;;;;;13.90;3.78;;;;;;;31.32;27.38;101665.66;5152978;28;19911;-81
2022/06/15 11:50:11;;;;;;;9.65;4.00;;;;;;;31.27;27.83;101662.53;5155808;28;20073;-76
2022/06/15 11:53:20;;;;;;;8.63;3.58;;;;;;;31.95;27.43;101660.09;5156212;29;20050;-78
2022/06/15 11:56:12;;;;;;;7.30;3.78;;;;;;;30.91;27.33;101652.09;5162839;28;20047;-76
2022/06/15 11:59:10;;;;;;;9.55;3.60;;;;;;;31.35;28.33;101664.53;5156741;28;20384;-82
2022/06/15 12:02:00;;;;;;;8.95;4.07;;;;;;;30.91;28.40;101648.53;5160855;28;20495;-76
2022/06/15 12:04:50;;;;;;;10.50;4.35;;;;;;;31.58;27.17;101644.53;5155993;29;20028;-83
2022/06/15 12:08:00;;;;;;;12.35;4.40;;;;;;;31.65;26.27;101644.84;5157438;28;20041;-82
2022/06/15 12:12:37;;;;;;;7.72;3.58;;;;;;;30.25;26.89;101641.47;5194564;28;20050;-83
2022/06/15 12:14:15;;;;;;;8.00;3.53;;;;;;;31.33;29.52;101640.44;5218629;28;20502;-80
2022/06/15 12:16:54;;;;;;;9.90;3.88;;;;;;;31.65;28.30;101635.91;5219405;28;20057;-74
2022/06/15 12:20:00;;;;;;;8.20;3.95;;;;;;;32.14;26.42;101640.44;5227400;28;20041;-78
2022/06/15 12:23:04;;;;;;;7.97;3.30;;;;;;;31.64;26.54;101635.06;5147808;29;20058;-80
2022/06/15 12:25:51;;;;;;;7.18;3.45;;;;;;;31.14;27.21;101630.44;5148327;28;20040;-74